首页
METAR-TAF:

METAR-TAF

机场 :

Yacuíba, 玻利维亚

纬度: 21-57S, 经度: 063-39W, 海拔: 645米

METAR: 丢失

时间: 01:19 (05:19 UTC)

预报

该预报发布于25小时和19分钟前的04:00 UTC
预报有效从13日的 06点(UTC)到 14日的 06点(UTC)
风速节,风向
能见度10公里或以上
散云层高于7000英尺
短暂存在
从 13日的 16点(UTC)到 13日的 18点(UTC)
风速10节,风向南转西南

TAF: SLYA 130400Z 1306/1406 00000KT 9999 SCT070 TX18/1319Z TN02/1311Z TEMPO 1316/1318 21010KT

超过4000个机场的气象观测和天气预报(METAR&TAF报告)。

可查询的气象台以黄色和红色小点在地图上表示。

将鼠标移到小点上方,可查看气象台名称。

然后点击查看天气观测和预报。

如需切换地图:点击带黑十字的绿色按钮放大地图;点击带横线的绿色按钮缩小地图;或者点击绿色箭头查看邻近地区的地图。


METAR-TAF: